Central Jersey Regional (47N)
Manville, NJ
Field Elevation: 86
Lat: 40°31.47N  Long: 74°35.90W
CTAF/Unicom Freq: 122.7000
   
    
Weather Advisories
2019-05-21   18:55 Z
Altimeter 29.95" Hg
Wind 320° @ 7 KT
Gusts 15 KT
Visibility 10 SM
Temperature 20° C (68° F)
Dewpoint 6° C (43° F)
Relative Humidity 38%
Density Altitude --
Condensation Altitude 7,300 feet
Wind and Runways
Indicated Runway = 25
Headwind = 2 kt
Crosswind = 7 kt
History
 
 
 
More Info
NOAA Forecast
 
 
About Us
Belfort Instrument
 
 
FAA Disclaimer: The data displayed is for advisory purposes only and is not to be used for flight planning or operations. For official data, please call (not available) to hear the current automated AWOS voice message.
  METAR 47N 211855Z AUTO 32007G15KT 10 SM 20/06 A2995